Airfield :
LOGIN :

Register | Disclaimer

   EN    FR    IT 

 










Legend :    VFR   Marginal VFR   IFR   Intensive IFR   Very Intensive IFR
Visi :
Ceiling :
>= 8 km
>= 3000ft
5 to 8 km
1000 to 3000 ft
1500m to 5 km
500 to 1000 ft
800 to 1500m
200 to 500 ft
< 800m
< 200 ft
Symbols :   Thunderstorms  Fog  Heavy snow  Heavy precipitations  Wind > 20 kt
SIGMETs :     Misc.  Thunderstorms  Icing  Turbulence  Mountain Waves  Volcanic Ashes






- Airport Elevation : 13 ft
- IATA code : OST


EBOS - Oostend bruges Int.

CURRENT METAR :
  • 271920Z 18008KT 9000 -RA BKN006 07/06 Q1010 TEMPO 4000 RA

EXPIRED METARs :
  • 271850Z 17008KT 9000 -RA BKN006 07/06 Q1010 TEMPO 4000 RA
  • 271820Z 18009KT 9000 -RA BKN006 07/06 Q1011 TEMPO 4000 RA
  • 271750Z 17008KT 9000 -RA BKN006 07/06 Q1011 TEMPO 4000 RA
  • 271720Z 17009KT 9999 -RA FEW004 BKN006 07/06 Q1012 TEMPO 4000 RA
  • 271650Z 17010KT 6000 -RA SCT004 BKN006 07/06 Q1012 TEMPO 4000 -RA BKN004

TAF TAF EBOS
Valid from the 27 at 18:00 until the 29 at 00:00 UTC


271700Z 2718/2824 18010KT 4000 RA RADZ SCT006 BKN011
TEMPO 2718/2807 2500 DZRA BR BKN004
BECMG 2806/2809 24005KT 9999 NSW SCT014 BKN020
PROB30
TEMPO 2812/2816 SHRA



MET'MAP, your aeronautical weather chart ! - Copyright ORBIFLY December 2007 - Disclaimer

ORBIFLY MET'MAP TEAM :

Programming & Development : Alexandra Zaïnal
Original concept : Baudouin d'Aumeries
Technical & hardware support : Manuel Goepfert
Assistance : Marc-Olivier Méhu




SOURCES & CREDITS :

   NOAA